sensor_id;sensor_type;location;lat;lon;timestamp;pressure;altitude;pressure_sealevel;temperature;humidity
54554;BME280;40450;55.848;-3.572;2023-04-27T00:00:49;99585.10;;;3.75;79.02
54554;BME280;40450;55.848;-3.572;2023-04-27T00:03:19;99584.99;;;3.87;79.00
54554;BME280;40450;55.848;-3.572;2023-04-27T00:05:49;99589.38;;;5.11;75.93
54554;BME280;40450;55.848;-3.572;2023-04-27T00:08:19;99582.22;;;5.68;74.18
54554;BME280;40450;55.848;-3.572;2023-04-27T00:10:50;99579.16;;;6.34;72.93
54554;BME280;40450;55.848;-3.572;2023-04-27T00:13:21;99578.55;;;6.57;71.54
54554;BME280;40450;55.848;-3.572;2023-04-27T00:15:51;99577.66;;;6.51;71.28
54554;BME280;40450;55.848;-3.572;2023-04-27T00:18:21;99581.43;;;6.53;70.99
54554;BME280;40450;55.848;-3.572;2023-04-27T00:20:52;99579.02;;;6.89;70.03
54554;BME280;40450;55.848;-3.572;2023-04-27T00:23:22;99581.95;;;6.76;70.38
54554;BME280;40450;55.848;-3.572;2023-04-27T00:25:52;99579.13;;;6.56;70.67
54554;BME280;40450;55.848;-3.572;2023-04-27T00:28:24;99579.35;;;7.19;69.43
54554;BME280;40450;55.848;-3.572;2023-04-27T00:30:53;99577.24;;;7.25;68.91
54554;BME280;40450;55.848;-3.572;2023-04-27T00:33:24;99576.59;;;7.59;68.28
54554;BME280;40450;55.848;-3.572;2023-04-27T00:35:55;99571.88;;;7.73;68.25
54554;BME280;40450;55.848;-3.572;2023-04-27T00:38:24;99567.09;;;8.32;68.12
54554;BME280;40450;55.848;-3.572;2023-04-27T00:41:00;99569.41;;;8.27;66.26
54554;BME280;40450;55.848;-3.572;2023-04-27T00:43:25;99566.01;;;8.59;66.91
54554;BME280;40450;55.848;-3.572;2023-04-27T00:45:56;99561.05;;;9.11;66.39
54554;BME280;40450;55.848;-3.572;2023-04-27T00:48:26;99553.35;;;9.76;66.25
54554;BME280;40450;55.848;-3.572;2023-04-27T00:50:57;99543.72;;;10.18;64.88
54554;BME280;40450;55.848;-3.572;2023-04-27T00:53:27;99533.16;;;10.45;62.63
54554;BME280;40450;55.848;-3.572;2023-04-27T00:55:58;99532.16;;;9.69;61.89
54554;BME280;40450;55.848;-3.572;2023-04-27T00:58:28;99530.53;;;9.46;62.73
54554;BME280;40450;55.848;-3.572;2023-04-27T01:00:59;99530.47;;;9.74;62.52
54554;BME280;40450;55.848;-3.572;2023-04-27T01:03:29;99524.93;;;9.21;63.20
54554;BME280;40450;55.848;-3.572;2023-04-27T01:06:00;99517.00;;;8.28;65.38
54554;BME280;40450;55.848;-3.572;2023-04-27T01:08:30;99515.98;;;7.06;69.16
54554;BME280;40450;55.848;-3.572;2023-04-27T01:11:01;99514.18;;;6.77;70.37
54554;BME280;40450;55.848;-3.572;2023-04-27T01:13:31;99510.37;;;7.47;67.75
54554;BME280;40450;55.848;-3.572;2023-04-27T01:16:01;99506.86;;;8.00;67.70
54554;BME280;40450;55.848;-3.572;2023-04-27T01:18:31;99507.98;;;5.99;70.58
54554;BME280;40450;55.848;-3.572;2023-04-27T01:21:02;99504.20;;;8.01;67.04
54554;BME280;40450;55.848;-3.572;2023-04-27T01:23:32;99505.83;;;8.01;66.40
54554;BME280;40450;55.848;-3.572;2023-04-27T01:26:03;99512.52;;;4.93;74.38
54554;BME280;40450;55.848;-3.572;2023-04-27T01:28:33;99515.81;;;3.96;76.52
54554;BME280;40450;55.848;-3.572;2023-04-27T01:31:03;99510.81;;;6.24;71.22
54554;BME280;40450;55.848;-3.572;2023-04-27T01:33:33;99508.29;;;7.79;69.21
54554;BME280;40450;55.848;-3.572;2023-04-27T01:36:04;99511.64;;;8.63;65.80
54554;BME280;40450;55.848;-3.572;2023-04-27T01:38:35;99509.88;;;9.55;65.70
54554;BME280;40450;55.848;-3.572;2023-04-27T01:41:05;99511.35;;;8.49;64.13
54554;BME280;40450;55.848;-3.572;2023-04-27T01:43:35;99513.66;;;8.40;64.91
54554;BME280;40450;55.848;-3.572;2023-04-27T01:46:06;99522.27;;;6.58;70.10
54554;BME280;40450;55.848;-3.572;2023-04-27T01:48:36;99519.95;;;7.40;68.44
54554;BME280;40450;55.848;-3.572;2023-04-27T01:51:07;99518.38;;;8.89;66.28
54554;BME280;40450;55.848;-3.572;2023-04-27T01:53:38;99518.67;;;6.31;70.01
54554;BME280;40450;55.848;-3.572;2023-04-27T01:56:08;99516.40;;;5.83;72.63
54554;BME280;40450;55.848;-3.572;2023-04-27T01:58:38;99517.53;;;6.67;69.95
54554;BME280;40450;55.848;-3.572;2023-04-27T02:01:08;99515.54;;;7.59;68.52
54554;BME280;40450;55.848;-3.572;2023-04-27T02:03:39;99513.89;;;9.48;65.36
54554;BME280;40450;55.848;-3.572;2023-04-27T02:06:09;99512.23;;;9.98;62.80
54554;BME280;40450;55.848;-3.572;2023-04-27T02:08:40;99512.20;;;9.85;61.36
54554;BME280;40450;55.848;-3.572;2023-04-27T02:11:10;99504.29;;;10.02;60.88
54554;BME280;40450;55.848;-3.572;2023-04-27T02:13:40;99510.52;;;9.48;61.77
54554;BME280;40450;55.848;-3.572;2023-04-27T02:16:10;99509.88;;;9.45;62.20
54554;BME280;40450;55.848;-3.572;2023-04-27T02:18:41;99511.30;;;9.55;62.22
54554;BME280;40450;55.848;-3.572;2023-04-27T02:21:11;99511.86;;;8.72;64.24
54554;BME280;40450;55.848;-3.572;2023-04-27T02:23:42;99505.53;;;9.06;63.39
54554;BME280;40450;55.848;-3.572;2023-04-27T02:26:17;99504.59;;;8.86;63.90
54554;BME280;40450;55.848;-3.572;2023-04-27T02:28:43;99503.51;;;9.26;63.53
54554;BME280;40450;55.848;-3.572;2023-04-27T02:31:14;99504.69;;;9.18;63.29
54554;BME280;40450;55.848;-3.572;2023-04-27T02:33:44;99497.59;;;9.79;63.04
54554;BME280;40450;55.848;-3.572;2023-04-27T02:36:15;99491.34;;;9.84;62.01
54554;BME280;40450;55.848;-3.572;2023-04-27T02:38:46;99489.10;;;10.04;62.03
54554;BME280;40450;55.848;-3.572;2023-04-27T02:41:16;99491.30;;;9.90;60.96
54554;BME280;40450;55.848;-3.572;2023-04-27T02:43:46;99492.34;;;9.79;61.15
54554;BME280;40450;55.848;-3.572;2023-04-27T02:46:16;99491.04;;;10.09;61.23
54554;BME280;40450;55.848;-3.572;2023-04-27T02:48:46;99487.65;;;10.30;60.86
54554;BME280;40450;55.848;-3.572;2023-04-27T02:51:17;99486.34;;;10.79;59.70
54554;BME280;40450;55.848;-3.572;2023-04-27T02:53:48;99486.40;;;11.02;59.16
54554;BME280;40450;55.848;-3.572;2023-04-27T02:56:18;99480.42;;;10.87;57.51
54554;BME280;40450;55.848;-3.572;2023-04-27T02:58:48;99481.99;;;11.21;58.39
54554;BME280;40450;55.848;-3.572;2023-04-27T03:01:19;99479.83;;;11.33;57.63
54554;BME280;40450;55.848;-3.572;2023-04-27T03:03:49;99480.10;;;11.33;58.15
54554;BME280;40450;55.848;-3.572;2023-04-27T03:06:20;99475.96;;;11.52;58.14
54554;BME280;40450;55.848;-3.572;2023-04-27T03:08:50;99476.38;;;10.83;55.63
54554;BME280;40450;55.848;-3.572;2023-04-27T03:11:20;99477.67;;;10.77;58.47
54554;BME280;40450;55.848;-3.572;2023-04-27T03:13:51;99486.02;;;6.30;69.16
54554;BME280;40450;55.848;-3.572;2023-04-27T03:16:21;99486.72;;;8.71;62.85
54554;BME280;40450;55.848;-3.572;2023-04-27T03:18:51;99485.84;;;7.63;65.94
54554;BME280;40450;55.848;-3.572;2023-04-27T03:21:21;99495.40;;;4.42;75.88
54554;BME280;40450;55.848;-3.572;2023-04-27T03:23:52;99489.25;;;5.31;73.80
54554;BME280;40450;55.848;-3.572;2023-04-27T03:26:22;99484.25;;;6.21;72.02
54554;BME280;40450;55.848;-3.572;2023-04-27T03:28:52;99474.58;;;8.01;68.37
54554;BME280;40450;55.848;-3.572;2023-04-27T03:31:23;99471.52;;;9.35;64.55
54554;BME280;40450;55.848;-3.572;2023-04-27T03:33:53;99479.37;;;6.32;70.23
54554;BME280;40450;55.848;-3.572;2023-04-27T03:36:24;99482.80;;;5.61;73.68
54554;BME280;40450;55.848;-3.572;2023-04-27T03:38:54;99483.03;;;4.95;76.09
54554;BME280;40450;55.848;-3.572;2023-04-27T03:41:25;99481.90;;;5.40;74.78
54554;BME280;40450;55.848;-3.572;2023-04-27T03:43:55;99484.41;;;3.71;79.62
54554;BME280;40450;55.848;-3.572;2023-04-27T03:46:25;99480.86;;;3.13;82.20
54554;BME280;40450;55.848;-3.572;2023-04-27T03:48:55;99483.08;;;3.99;79.31
54554;BME280;40450;55.848;-3.572;2023-04-27T03:51:25;99480.86;;;4.01;79.95
54554;BME280;40450;55.848;-3.572;2023-04-27T03:53:56;99479.19;;;3.46;81.43
54554;BME280;40450;55.848;-3.572;2023-04-27T03:56:26;99474.30;;;3.39;81.49
54554;BME280;40450;55.848;-3.572;2023-04-27T03:58:57;99472.54;;;0.75;89.13
54554;BME280;40450;55.848;-3.572;2023-04-27T04:01:27;99466.19;;;3.73;82.35
54554;BME280;40450;55.848;-3.572;2023-04-27T04:03:58;99461.52;;;4.33;81.17
54554;BME280;40450;55.848;-3.572;2023-04-27T04:06:29;99452.79;;;5.98;76.86
54554;BME280;40450;55.848;-3.572;2023-04-27T04:08:59;99457.52;;;5.99;74.04
54554;BME280;40450;55.848;-3.572;2023-04-27T04:11:29;99456.90;;;6.28;76.04
54554;BME280;40450;55.848;-3.572;2023-04-27T04:14:00;99457.36;;;6.10;73.25
54554;BME280;40450;55.848;-3.572;2023-04-27T04:16:32;99455.18;;;7.60;71.95
54554;BME280;40450;55.848;-3.572;2023-04-27T04:19:01;99458.22;;;6.54;73.59
54554;BME280;40450;55.848;-3.572;2023-04-27T04:21:31;99452.45;;;7.92;71.07
54554;BME280;40450;55.848;-3.572;2023-04-27T04:24:01;99446.62;;;8.22;69.09
54554;BME280;40450;55.848;-3.572;2023-04-27T04:26:32;99442.51;;;8.60;67.15
54554;BME280;40450;55.848;-3.572;2023-04-27T04:29:03;99440.72;;;7.93;68.31
54554;BME280;40450;55.848;-3.572;2023-04-27T04:31:33;99433.08;;;9.55;65.91
54554;BME280;40450;55.848;-3.572;2023-04-27T04:34:03;99431.07;;;10.16;65.78
54554;BME280;40450;55.848;-3.572;2023-04-27T04:36:34;99427.88;;;10.38;65.41
54554;BME280;40450;55.848;-3.572;2023-04-27T04:39:04;99428.11;;;10.65;64.03
54554;BME280;40450;55.848;-3.572;2023-04-27T04:41:35;99425.80;;;10.36;62.94
54554;BME280;40450;55.848;-3.572;2023-04-27T04:44:05;99422.11;;;10.59;63.13
54554;BME280;40450;55.848;-3.572;2023-04-27T04:46:35;99418.99;;;11.13;61.17
54554;BME280;40450;55.848;-3.572;2023-04-27T04:49:06;99426.63;;;8.58;63.73
54554;BME280;40450;55.848;-3.572;2023-04-27T04:51:41;99413.01;;;10.48;62.77
54554;BME280;40450;55.848;-3.572;2023-04-27T04:54:07;99410.65;;;10.89;60.66
54554;BME280;40450;55.848;-3.572;2023-04-27T04:56:38;99411.38;;;11.02;59.18
54554;BME280;40450;55.848;-3.572;2023-04-27T04:59:08;99413.13;;;11.25;60.01
54554;BME280;40450;55.848;-3.572;2023-04-27T05:01:39;99412.70;;;11.38;58.88
54554;BME280;40450;55.848;-3.572;2023-04-27T05:04:09;99413.48;;;11.28;58.39
54554;BME280;40450;55.848;-3.572;2023-04-27T05:06:40;99417.94;;;11.15;58.16
54554;BME280;40450;55.848;-3.572;2023-04-27T05:09:10;99416.11;;;10.90;58.25
54554;BME280;40450;55.848;-3.572;2023-04-27T05:11:41;99411.65;;;11.09;58.14
54554;BME280;40450;55.848;-3.572;2023-04-27T05:14:11;99412.45;;;10.62;58.50
54554;BME280;40450;55.848;-3.572;2023-04-27T05:16:42;99409.73;;;11.00;58.99
54554;BME280;40450;55.848;-3.572;2023-04-27T05:19:12;99407.44;;;10.91;58.74
54554;BME280;40450;55.848;-3.572;2023-04-27T05:21:42;99408.04;;;11.16;58.19
54554;BME280;40450;55.848;-3.572;2023-04-27T05:24:13;99406.48;;;11.13;58.21
54554;BME280;40450;55.848;-3.572;2023-04-27T05:26:43;99406.17;;;11.31;57.98
54554;BME280;40450;55.848;-3.572;2023-04-27T05:29:15;99400.34;;;11.49;57.16
54554;BME280;40450;55.848;-3.572;2023-04-27T05:31:45;99397.12;;;11.72;57.53
54554;BME280;40450;55.848;-3.572;2023-04-27T05:34:14;99403.88;;;9.43;58.94
54554;BME280;40450;55.848;-3.572;2023-04-27T05:36:45;99404.43;;;11.26;58.24
54554;BME280;40450;55.848;-3.572;2023-04-27T05:39:16;99399.01;;;11.73;57.65
54554;BME280;40450;55.848;-3.572;2023-04-27T05:41:46;99403.07;;;10.57;57.23
54554;BME280;40450;55.848;-3.572;2023-04-27T05:44:17;99398.75;;;11.70;56.81
54554;BME280;40450;55.848;-3.572;2023-04-27T05:46:47;99399.44;;;12.07;55.20
54554;BME280;40450;55.848;-3.572;2023-04-27T05:49:17;99397.63;;;12.20;55.16
54554;BME280;40450;55.848;-3.572;2023-04-27T05:51:48;99400.05;;;12.39;55.09
54554;BME280;40450;55.848;-3.572;2023-04-27T05:54:18;99400.54;;;12.57;54.74
54554;BME280;40450;55.848;-3.572;2023-04-27T05:56:48;99403.72;;;12.64;54.43
54554;BME280;40450;55.848;-3.572;2023-04-27T05:59:19;99404.80;;;12.57;54.46
54554;BME280;40450;55.848;-3.572;2023-04-27T06:01:50;99401.77;;;12.76;54.57
54554;BME280;40450;55.848;-3.572;2023-04-27T06:04:19;99399.54;;;12.93;54.40
54554;BME280;40450;55.848;-3.572;2023-04-27T06:06:50;99397.55;;;11.78;53.92
54554;BME280;40450;55.848;-3.572;2023-04-27T06:09:20;99396.31;;;12.90;54.16
54554;BME280;40450;55.848;-3.572;2023-04-27T06:11:50;99393.60;;;13.05;52.85
54554;BME280;40450;55.848;-3.572;2023-04-27T06:14:21;99396.07;;;9.65;58.20
54554;BME280;40450;55.848;-3.572;2023-04-27T06:16:51;99394.49;;;10.07;57.88
54554;BME280;40450;55.848;-3.572;2023-04-27T06:19:22;99386.80;;;11.25;55.95
54554;BME280;40450;55.848;-3.572;2023-04-27T06:21:53;99390.09;;;7.17;66.31
54554;BME280;40450;55.848;-3.572;2023-04-27T06:24:23;99389.06;;;8.74;61.57
54554;BME280;40450;55.848;-3.572;2023-04-27T06:26:53;99389.29;;;8.35;63.98
54554;BME280;40450;55.848;-3.572;2023-04-27T06:29:24;99379.76;;;10.33;59.93
54554;BME280;40450;55.848;-3.572;2023-04-27T06:31:55;99378.16;;;9.97;61.01
54554;BME280;40450;55.848;-3.572;2023-04-27T06:34:25;99384.78;;;6.24;69.61
54554;BME280;40450;55.848;-3.572;2023-04-27T06:36:55;99387.79;;;7.51;66.79
54554;BME280;40450;55.848;-3.572;2023-04-27T06:39:26;99383.42;;;10.35;62.97
54554;BME280;40450;55.848;-3.572;2023-04-27T06:41:56;99385.01;;;11.06;60.50
54554;BME280;40450;55.848;-3.572;2023-04-27T06:44:26;99382.10;;;10.90;58.41
54554;BME280;40450;55.848;-3.572;2023-04-27T06:46:57;99376.62;;;11.72;57.46
54554;BME280;40450;55.848;-3.572;2023-04-27T06:49:27;99377.23;;;11.44;55.62
54554;BME280;40450;55.848;-3.572;2023-04-27T06:51:58;99376.14;;;12.08;56.05
54554;BME280;40450;55.848;-3.572;2023-04-27T06:54:28;99376.01;;;12.32;53.01
54554;BME280;40450;55.848;-3.572;2023-04-27T06:56:59;99378.52;;;12.72;54.21
54554;BME280;40450;55.848;-3.572;2023-04-27T06:59:30;99375.39;;;13.17;53.87
54554;BME280;40450;55.848;-3.572;2023-04-27T07:02:00;99374.22;;;13.26;53.39
54554;BME280;40450;55.848;-3.572;2023-04-27T07:04:30;99370.79;;;13.63;52.88
54554;BME280;40450;55.848;-3.572;2023-04-27T07:07:01;99373.82;;;13.12;52.00
54554;BME280;40450;55.848;-3.572;2023-04-27T07:09:31;99371.32;;;13.80;51.65
54554;BME280;40450;55.848;-3.572;2023-04-27T07:12:02;99373.53;;;9.80;59.45
54554;BME280;40450;55.848;-3.572;2023-04-27T07:14:32;99383.24;;;4.87;80.00
54554;BME280;40450;55.848;-3.572;2023-04-27T07:17:03;99381.86;;;7.01;73.30
54554;BME280;40450;55.848;-3.572;2023-04-27T07:19:33;99380.07;;;9.94;66.22
54554;BME280;40450;55.848;-3.572;2023-04-27T07:22:04;99383.00;;;11.32;62.98
54554;BME280;40450;55.848;-3.572;2023-04-27T07:24:34;99379.75;;;8.97;67.21
54554;BME280;40450;55.848;-3.572;2023-04-27T07:27:05;99383.68;;;6.65;75.02
54554;BME280;40450;55.848;-3.572;2023-04-27T07:29:35;99382.77;;;6.76;76.33
54554;BME280;40450;55.848;-3.572;2023-04-27T07:32:07;99375.96;;;9.29;70.19
54554;BME280;40450;55.848;-3.572;2023-04-27T07:34:36;99380.39;;;10.75;65.54
54554;BME280;40450;55.848;-3.572;2023-04-27T07:37:07;99386.02;;;8.17;70.90
54554;BME280;40450;55.848;-3.572;2023-04-27T07:39:36;99382.95;;;10.81;66.52
54554;BME280;40450;55.848;-3.572;2023-04-27T07:42:07;99375.78;;;11.89;64.14
54554;BME280;40450;55.848;-3.572;2023-04-27T07:44:37;99376.36;;;10.80;66.70
54554;BME280;40450;55.848;-3.572;2023-04-27T07:47:08;99373.80;;;11.95;65.02
54554;BME280;40450;55.848;-3.572;2023-04-27T07:49:38;99371.84;;;12.42;62.67
54554;BME280;40450;55.848;-3.572;2023-04-27T07:52:08;99369.57;;;13.17;61.01
54554;BME280;40450;55.848;-3.572;2023-04-27T07:54:39;99359.85;;;13.54;60.04
54554;BME280;40450;55.848;-3.572;2023-04-27T07:57:10;99362.49;;;13.93;59.65
54554;BME280;40450;55.848;-3.572;2023-04-27T07:59:40;99364.60;;;13.10;58.59
54554;BME280;40450;55.848;-3.572;2023-04-27T08:02:10;99362.40;;;13.16;60.72
54554;BME280;40450;55.848;-3.572;2023-04-27T08:04:41;99361.46;;;13.83;58.44
54554;BME280;40450;55.848;-3.572;2023-04-27T08:07:11;99363.42;;;13.47;57.49
54554;BME280;40450;55.848;-3.572;2023-04-27T08:09:42;99365.79;;;13.91;55.89
54554;BME280;40450;55.848;-3.572;2023-04-27T08:12:13;99364.89;;;13.27;56.73
54554;BME280;40450;55.848;-3.572;2023-04-27T08:14:43;99362.17;;;13.39;56.78
54554;BME280;40450;55.848;-3.572;2023-04-27T08:17:13;99367.74;;;12.76;57.63
54554;BME280;40450;55.848;-3.572;2023-04-27T08:19:44;99366.60;;;12.45;58.85
54554;BME280;40450;55.848;-3.572;2023-04-27T08:22:14;99367.37;;;12.62;57.99
54554;BME280;40450;55.848;-3.572;2023-04-27T08:24:44;99362.84;;;12.01;58.78
54554;BME280;40450;55.848;-3.572;2023-04-27T08:27:15;99360.95;;;11.60;59.91
54554;BME280;40450;55.848;-3.572;2023-04-27T08:29:46;99360.01;;;12.05;59.66
54554;BME280;40450;55.848;-3.572;2023-04-27T08:32:16;99350.08;;;11.53;60.96
54554;BME280;40450;55.848;-3.572;2023-04-27T08:34:46;99347.76;;;11.44;62.64
54554;BME280;40450;55.848;-3.572;2023-04-27T08:37:16;99348.71;;;11.36;62.20
54554;BME280;40450;55.848;-3.572;2023-04-27T08:39:47;99346.42;;;11.22;61.82
54554;BME280;40450;55.848;-3.572;2023-04-27T08:42:18;99348.27;;;10.93;62.00
54554;BME280;40450;55.848;-3.572;2023-04-27T08:44:48;99348.79;;;11.47;62.19
54554;BME280;40450;55.848;-3.572;2023-04-27T08:47:19;99351.24;;;10.97;63.37
54554;BME280;40450;55.848;-3.572;2023-04-27T08:49:49;99350.95;;;10.44;65.43
54554;BME280;40450;55.848;-3.572;2023-04-27T08:52:20;99354.22;;;10.29;65.72
54554;BME280;40450;55.848;-3.572;2023-04-27T08:54:50;99347.02;;;10.09;65.74
54554;BME280;40450;55.848;-3.572;2023-04-27T08:57:20;99340.71;;;10.46;64.72
54554;BME280;40450;55.848;-3.572;2023-04-27T08:59:57;99335.33;;;10.72;64.99
54554;BME280;40450;55.848;-3.572;2023-04-27T09:02:21;99338.93;;;10.57;64.06
54554;BME280;40450;55.848;-3.572;2023-04-27T09:04:52;99342.15;;;10.66;64.75
54554;BME280;40450;55.848;-3.572;2023-04-27T09:07:22;99337.68;;;10.56;64.65
54554;BME280;40450;55.848;-3.572;2023-04-27T09:10:01;99332.63;;;10.52;65.17
54554;BME280;40450;55.848;-3.572;2023-04-27T09:12:23;99329.92;;;11.30;63.46
54554;BME280;40450;55.848;-3.572;2023-04-27T09:14:56;99325.42;;;11.53;63.73
54554;BME280;40450;55.848;-3.572;2023-04-27T09:17:24;99325.31;;;11.80;63.25
54554;BME280;40450;55.848;-3.572;2023-04-27T09:22:23;99324.86;;;11.36;64.18
54554;BME280;40450;55.848;-3.572;2023-04-27T09:24:54;99323.95;;;10.86;66.06
54554;BME280;40450;55.848;-3.572;2023-04-27T09:27:24;99324.51;;;10.22;67.08
54554;BME280;40450;55.848;-3.572;2023-04-27T09:29:55;99319.54;;;10.54;67.62
54554;BME280;40450;55.848;-3.572;2023-04-27T09:32:25;99319.67;;;11.08;66.29
54554;BME280;40450;55.848;-3.572;2023-04-27T09:34:55;99318.01;;;11.19;67.02
54554;BME280;40450;55.848;-3.572;2023-04-27T09:37:26;99317.71;;;11.47;66.95
54554;BME280;40450;55.848;-3.572;2023-04-27T09:39:56;99314.56;;;11.22;67.36
54554;BME280;40450;55.848;-3.572;2023-04-27T09:42:27;99312.23;;;11.49;66.80
54554;BME280;40450;55.848;-3.572;2023-04-27T09:44:59;99312.01;;;11.12;67.68
54554;BME280;40450;55.848;-3.572;2023-04-27T09:47:27;99311.14;;;11.32;66.85
54554;BME280;40450;55.848;-3.572;2023-04-27T09:49:58;99312.22;;;11.17;68.78
54554;BME280;40450;55.848;-3.572;2023-04-27T09:52:28;99309.49;;;11.33;68.38
54554;BME280;40450;55.848;-3.572;2023-04-27T09:54:59;99309.78;;;11.80;66.53
54554;BME280;40450;55.848;-3.572;2023-04-27T09:57:35;99309.49;;;12.10;66.65
54554;BME280;40450;55.848;-3.572;2023-04-27T10:00:07;99305.64;;;11.50;66.58
54554;BME280;40450;55.848;-3.572;2023-04-27T10:02:37;99304.69;;;11.80;65.69
54554;BME280;40450;55.848;-3.572;2023-04-27T10:05:12;99301.86;;;12.21;65.90
54554;BME280;40450;55.848;-3.572;2023-04-27T10:07:31;99304.48;;;12.44;65.99
54554;BME280;40450;55.848;-3.572;2023-04-27T10:10:02;99297.08;;;12.73;64.90
54554;BME280;40450;55.848;-3.572;2023-04-27T10:12:33;99289.81;;;13.04;65.29
54554;BME280;40450;55.848;-3.572;2023-04-27T10:15:11;99285.62;;;13.62;64.37
54554;BME280;40450;55.848;-3.572;2023-04-27T10:17:34;99285.61;;;13.27;63.33
54554;BME280;40450;55.848;-3.572;2023-04-27T10:20:05;99286.61;;;12.68;65.14
54554;BME280;40450;55.848;-3.572;2023-04-27T10:22:38;99277.95;;;13.17;64.30
54554;BME280;40450;55.848;-3.572;2023-04-27T10:25:13;99275.24;;;13.64;64.52
54554;BME280;40450;55.848;-3.572;2023-04-27T10:27:38;99269.69;;;14.00;63.24
54554;BME280;40450;55.848;-3.572;2023-04-27T10:30:09;99267.59;;;14.25;62.91
54554;BME280;40450;55.848;-3.572;2023-04-27T10:32:36;99260.47;;;13.40;63.42
54554;BME280;40450;55.848;-3.572;2023-04-27T10:35:08;99262.67;;;14.31;62.71
54554;BME280;40450;55.848;-3.572;2023-04-27T10:37:39;99260.54;;;13.83;62.48
54554;BME280;40450;55.848;-3.572;2023-04-27T10:40:08;99256.10;;;14.23;62.05
54554;BME280;40450;55.848;-3.572;2023-04-27T10:42:37;99251.86;;;14.04;62.48
54554;BME280;40450;55.848;-3.572;2023-04-27T10:45:08;99248.89;;;14.30;61.96
54554;BME280;40450;55.848;-3.572;2023-04-27T10:47:39;99248.14;;;14.09;62.12
54554;BME280;40450;55.848;-3.572;2023-04-27T10:50:10;99244.80;;;14.29;61.95
54554;BME280;40450;55.848;-3.572;2023-04-27T10:52:40;99246.93;;;14.04;62.17
54554;BME280;40450;55.848;-3.572;2023-04-27T10:55:14;99243.02;;;14.49;61.70
54554;BME280;40450;55.848;-3.572;2023-04-27T10:57:45;99242.53;;;14.68;60.90
54554;BME280;40450;55.848;-3.572;2023-04-27T11:00:11;99241.00;;;13.31;63.10
54554;BME280;40450;55.848;-3.572;2023-04-27T11:02:40;99237.67;;;13.33;62.30
54554;BME280;40450;55.848;-3.572;2023-04-27T11:05:16;99234.49;;;14.17;61.54
54554;BME280;40450;55.848;-3.572;2023-04-27T11:07:41;99230.84;;;13.46;61.65
54554;BME280;40450;55.848;-3.572;2023-04-27T11:10:14;99232.10;;;12.12;67.06
54554;BME280;40450;55.848;-3.572;2023-04-27T11:12:42;99220.59;;;13.57;64.15
54554;BME280;40450;55.848;-3.572;2023-04-27T11:15:12;99214.63;;;13.94;63.11
54554;BME280;40450;55.848;-3.572;2023-04-27T11:17:42;99208.35;;;14.13;61.90
54554;BME280;40450;55.848;-3.572;2023-04-27T11:20:12;99204.17;;;14.11;62.09
54554;BME280;40450;55.848;-3.572;2023-04-27T11:22:44;99206.56;;;13.60;62.43
54554;BME280;40450;55.848;-3.572;2023-04-27T11:25:14;99206.35;;;13.27;63.21
54554;BME280;40450;55.848;-3.572;2023-04-27T11:27:44;99204.85;;;13.87;62.21
54554;BME280;40450;55.848;-3.572;2023-04-27T11:30:19;99204.35;;;13.89;61.61
54554;BME280;40450;55.848;-3.572;2023-04-27T11:32:45;99204.18;;;13.91;61.70
54554;BME280;40450;55.848;-3.572;2023-04-27T11:35:16;99195.81;;;14.40;61.45
54554;BME280;40450;55.848;-3.572;2023-04-27T11:37:55;99191.37;;;14.45;61.82
54554;BME280;40450;55.848;-3.572;2023-04-27T11:40:17;99185.77;;;14.65;61.45
54554;BME280;40450;55.848;-3.572;2023-04-27T11:42:55;99189.14;;;14.10;61.65
54554;BME280;40450;55.848;-3.572;2023-04-27T11:45:16;99187.77;;;14.22;61.10
54554;BME280;40450;55.848;-3.572;2023-04-27T11:47:46;99186.99;;;14.35;60.64
54554;BME280;40450;55.848;-3.572;2023-04-27T11:50:17;99183.48;;;14.48;60.91
54554;BME280;40450;55.848;-3.572;2023-04-27T11:52:47;99176.17;;;14.85;59.97
54554;BME280;40450;55.848;-3.572;2023-04-27T11:55:19;99176.54;;;14.16;62.08
54554;BME280;40450;55.848;-3.572;2023-04-27T11:57:48;99171.67;;;14.50;61.05
54554;BME280;40450;55.848;-3.572;2023-04-27T12:00:19;99174.80;;;15.02;60.08
54554;BME280;40450;55.848;-3.572;2023-04-27T12:02:48;99168.74;;;15.13;60.10
54554;BME280;40450;55.848;-3.572;2023-04-27T12:05:19;99170.63;;;12.19;66.34
54554;BME280;40450;55.848;-3.572;2023-04-27T12:07:49;99166.09;;;13.36;64.72
54554;BME280;40450;55.848;-3.572;2023-04-27T12:10:20;99169.03;;;12.74;66.18
54554;BME280;40450;55.848;-3.572;2023-04-27T12:12:50;99169.04;;;11.36;70.23
54554;BME280;40450;55.848;-3.572;2023-04-27T12:15:21;99162.66;;;12.11;69.45
54554;BME280;40450;55.848;-3.572;2023-04-27T12:17:51;99158.73;;;12.08;68.78
54554;BME280;40450;55.848;-3.572;2023-04-27T12:20:22;99156.71;;;12.52;67.79
54554;BME280;40450;55.848;-3.572;2023-04-27T12:22:53;99155.18;;;13.66;66.08
54554;BME280;40450;55.848;-3.572;2023-04-27T12:25:23;99150.09;;;14.10;63.72
54554;BME280;40450;55.848;-3.572;2023-04-27T12:27:54;99149.40;;;13.78;64.99
54554;BME280;40450;55.848;-3.572;2023-04-27T12:30:24;99146.16;;;14.77;63.14
54554;BME280;40450;55.848;-3.572;2023-04-27T12:32:55;99144.65;;;14.51;61.98
54554;BME280;40450;55.848;-3.572;2023-04-27T12:35:25;99146.28;;;15.11;61.50
54554;BME280;40450;55.848;-3.572;2023-04-27T12:37:56;99144.95;;;15.35;60.12
54554;BME280;40450;55.848;-3.572;2023-04-27T12:40:26;99141.92;;;15.46;59.61
54554;BME280;40450;55.848;-3.572;2023-04-27T12:42:56;99140.44;;;13.60;62.38
54554;BME280;40450;55.848;-3.572;2023-04-27T12:45:27;99137.83;;;15.24;60.01
54554;BME280;40450;55.848;-3.572;2023-04-27T12:47:58;99136.49;;;13.86;62.39
54554;BME280;40450;55.848;-3.572;2023-04-27T12:50:28;99135.27;;;14.56;59.91
54554;BME280;40450;55.848;-3.572;2023-04-27T12:52:58;99137.46;;;15.44;57.74
54554;BME280;40450;55.848;-3.572;2023-04-27T12:55:28;99135.44;;;12.91;63.92
54554;BME280;40450;55.848;-3.572;2023-04-27T12:57:58;99132.00;;;12.47;65.93
54554;BME280;40450;55.848;-3.572;2023-04-27T13:00:28;99130.60;;;13.96;62.98
54554;BME280;40450;55.848;-3.572;2023-04-27T13:02:59;99125.11;;;12.80;64.99
54554;BME280;40450;55.848;-3.572;2023-04-27T13:05:29;99123.91;;;13.96;61.68
54554;BME280;40450;55.848;-3.572;2023-04-27T13:07:59;99121.99;;;13.05;63.78
54554;BME280;40450;55.848;-3.572;2023-04-27T13:10:30;99115.20;;;14.83;60.51